TimeAKDT,TemperatureF,Dew PointF,Humidity,Sea Level PressureIn,VisibilityMPH,Wind Direction,Wind SpeedMPH,Gust SpeedMPH,PrecipitationIn,Events,Conditions,WindDirDegrees,DateUTC
12:53 AM,15.1,7.0,70,30.04,10.0,NNE,9.2,-,N/A,,Mostly Cloudy,20,2012-10-31 08:53:00
1:53 AM,16.0,7.0,68,30.03,10.0,North,9.2,-,N/A,,Mostly Cloudy,10,2012-10-31 09:53:00
2:53 AM,15.1,7.0,70,30.02,10.0,North,10.4,-,N/A,,Mostly Cloudy,360,2012-10-31 10:53:00
3:53 AM,15.1,6.1,68,30.01,10.0,North,10.4,-,N/A,,Mostly Cloudy,10,2012-10-31 11:53:00
4:53 AM,15.1,6.1,68,30.01,10.0,North,11.5,-,N/A,,Mostly Cloudy,360,2012-10-31 12:53:00
5:53 AM,15.1,6.1,68,30.01,10.0,North,13.8,-,N/A,,Mostly Cloudy,360,2012-10-31 13:53:00
6:53 AM,16.0,7.0,68,30.01,10.0,North,13.8,-,N/A,,Mostly Cloudy,360,2012-10-31 14:53:00
7:53 AM,17.1,7.0,65,30.00,10.0,North,15.0,-,N/A,,Mostly Cloudy,360,2012-10-31 15:53:00
8:53 AM,16.0,6.1,65,29.99,10.0,North,16.1,-,N/A,,Mostly Cloudy,10,2012-10-31 16:53:00
9:53 AM,17.1,6.1,62,29.99,10.0,North,16.1,-,N/A,,Mostly Cloudy,360,2012-10-31 17:53:00
10:53 AM,18.0,6.1,60,29.99,10.0,North,15.0,-,N/A,,Overcast,10,2012-10-31 18:53:00
11:53 AM,19.0,7.0,59,29.99,10.0,North,12.7,-,N/A,,Mostly Cloudy,360,2012-10-31 19:53:00
12:53 PM,21.0,8.1,57,29.99,10.0,NE,16.1,25.3,N/A,,Mostly Cloudy,40,2012-10-31 20:53:00
1:53 PM,21.0,9.0,60,29.98,10.0,NE,18.4,23.0,N/A,,Mostly Cloudy,50,2012-10-31 21:53:00
2:53 PM,21.9,9.0,58,29.97,10.0,NE,18.4,-,N/A,,Mostly Cloudy,50,2012-10-31 22:53:00
3:53 PM,21.9,9.0,58,29.97,10.0,NE,16.1,-,N/A,,Mostly Cloudy,40,2012-10-31 23:53:00
4:53 PM,19.9,7.0,57,29.98,10.0,NE,12.7,-,N/A,,Mostly Cloudy,40,2012-11-01 00:53:00
5:53 PM,19.0,7.0,59,29.98,10.0,NNE,17.3,-,N/A,,Mostly Cloudy,30,2012-11-01 01:53:00
6:53 PM,19.0,7.0,59,29.99,10.0,NNE,17.3,-,N/A,,Mostly Cloudy,30,2012-11-01 02:53:00
7:53 PM,18.0,6.1,60,30.00,10.0,NNE,16.1,-,N/A,,Mostly Cloudy,30,2012-11-01 03:53:00
8:53 PM,19.0,6.1,57,30.00,10.0,NNE,18.4,23.0,N/A,,Mostly Cloudy,30,2012-11-01 04:53:00
9:53 PM,17.1,6.1,62,30.01,10.0,NNE,12.7,-,N/A,,Mostly Cloudy,30,2012-11-01 05:53:00
10:53 PM,17.1,6.1,62,30.02,10.0,NNE,13.8,-,N/A,,Scattered Clouds,30,2012-11-01 06:53:00
11:53 PM,15.1,5.0,64,30.03,10.0,NNE,9.2,-,N/A,,Scattered Clouds,30,2012-11-01 07:53:00